sensor_id;sensor_type;location;lat;lon;timestamp;P1;durP1;ratioP1;P2;durP2;ratioP2
39454;SDS011;25155;41.890;23.446;2023-10-13T00:00:16;5.05;;;3.45;;
39454;SDS011;25155;41.890;23.446;2023-10-13T00:02:58;6.95;;;4.40;;
39454;SDS011;25155;41.890;23.446;2023-10-13T00:05:27;5.50;;;3.45;;
39454;SDS011;25155;41.890;23.446;2023-10-13T00:07:56;4.80;;;3.28;;
39454;SDS011;25155;41.890;23.446;2023-10-13T00:10:26;4.75;;;3.33;;
39454;SDS011;25155;41.890;23.446;2023-10-13T00:12:54;5.20;;;2.90;;
39454;SDS011;25155;41.890;23.446;2023-10-13T00:15:31;5.50;;;3.40;;
39454;SDS011;25155;41.890;23.446;2023-10-13T00:18:06;4.72;;;3.28;;
39454;SDS011;25155;41.890;23.446;2023-10-13T00:20:38;6.05;;;4.10;;
39454;SDS011;25155;41.890;23.446;2023-10-13T00:23:12;6.18;;;3.50;;
39454;SDS011;25155;41.890;23.446;2023-10-13T00:25:39;5.95;;;3.90;;
39454;SDS011;25155;41.890;23.446;2023-10-13T00:28:15;6.07;;;4.05;;
39454;SDS011;25155;41.890;23.446;2023-10-13T00:30:49;5.50;;;3.50;;
39454;SDS011;25155;41.890;23.446;2023-10-13T00:33:19;4.97;;;3.10;;
39454;SDS011;25155;41.890;23.446;2023-10-13T00:35:47;4.65;;;3.03;;
39454;SDS011;25155;41.890;23.446;2023-10-13T00:38:17;4.72;;;3.00;;
39454;SDS011;25155;41.890;23.446;2023-10-13T00:40:45;3.85;;;2.53;;
39454;SDS011;25155;41.890;23.446;2023-10-13T00:43:19;4.60;;;2.90;;
39454;SDS011;25155;41.890;23.446;2023-10-13T00:46:03;4.22;;;2.90;;
39454;SDS011;25155;41.890;23.446;2023-10-13T00:48:41;4.28;;;2.80;;
39454;SDS011;25155;41.890;23.446;2023-10-13T00:51:17;4.30;;;2.95;;
39454;SDS011;25155;41.890;23.446;2023-10-13T00:53:57;4.30;;;2.60;;
39454;SDS011;25155;41.890;23.446;2023-10-13T00:56:24;5.93;;;3.35;;
39454;SDS011;25155;41.890;23.446;2023-10-13T00:58:54;7.35;;;5.15;;
39454;SDS011;25155;41.890;23.446;2023-10-13T01:01:23;8.70;;;4.60;;
39454;SDS011;25155;41.890;23.446;2023-10-13T01:03:56;6.90;;;4.07;;
39454;SDS011;25155;41.890;23.446;2023-10-13T01:06:25;6.45;;;3.75;;
39454;SDS011;25155;41.890;23.446;2023-10-13T01:08:56;5.68;;;2.90;;
39454;SDS011;25155;41.890;23.446;2023-10-13T01:11:25;5.78;;;3.08;;
39454;SDS011;25155;41.890;23.446;2023-10-13T01:13:55;5.10;;;3.10;;
39454;SDS011;25155;41.890;23.446;2023-10-13T01:16:22;4.45;;;2.60;;
39454;SDS011;25155;41.890;23.446;2023-10-13T01:18:52;4.57;;;2.90;;
39454;SDS011;25155;41.890;23.446;2023-10-13T01:21:20;5.93;;;3.40;;
39454;SDS011;25155;41.890;23.446;2023-10-13T01:23:53;5.10;;;3.22;;
39454;SDS011;25155;41.890;23.446;2023-10-13T01:26:20;5.38;;;3.90;;
39454;SDS011;25155;41.890;23.446;2023-10-13T01:28:50;5.95;;;3.90;;
39454;SDS011;25155;41.890;23.446;2023-10-13T01:31:17;6.93;;;4.10;;
39454;SDS011;25155;41.890;23.446;2023-10-13T01:33:55;5.63;;;3.70;;
39454;SDS011;25155;41.890;23.446;2023-10-13T01:36:24;5.30;;;3.47;;
39454;SDS011;25155;41.890;23.446;2023-10-13T01:38:54;5.57;;;3.53;;
39454;SDS011;25155;41.890;23.446;2023-10-13T01:41:21;4.57;;;3.13;;
39454;SDS011;25155;41.890;23.446;2023-10-13T01:43:49;6.70;;;4.07;;
39454;SDS011;25155;41.890;23.446;2023-10-13T01:46:15;7.00;;;3.83;;
39454;SDS011;25155;41.890;23.446;2023-10-13T01:48:44;5.13;;;3.35;;
39454;SDS011;25155;41.890;23.446;2023-10-13T01:51:12;5.85;;;3.67;;
39454;SDS011;25155;41.890;23.446;2023-10-13T01:53:39;5.68;;;3.67;;
39454;SDS011;25155;41.890;23.446;2023-10-13T01:56:08;4.88;;;3.05;;
39454;SDS011;25155;41.890;23.446;2023-10-13T01:58:40;4.50;;;3.22;;
39454;SDS011;25155;41.890;23.446;2023-10-13T02:01:13;5.22;;;3.47;;
39454;SDS011;25155;41.890;23.446;2023-10-13T02:03:52;5.68;;;3.22;;
39454;SDS011;25155;41.890;23.446;2023-10-13T02:06:27;4.88;;;2.97;;
39454;SDS011;25155;41.890;23.446;2023-10-13T02:08:58;5.07;;;3.30;;
39454;SDS011;25155;41.890;23.446;2023-10-13T02:11:38;6.00;;;3.45;;
39454;SDS011;25155;41.890;23.446;2023-10-13T02:14:07;5.47;;;3.45;;
39454;SDS011;25155;41.890;23.446;2023-10-13T02:16:37;9.35;;;5.68;;
39454;SDS011;25155;41.890;23.446;2023-10-13T02:19:04;6.72;;;4.63;;
39454;SDS011;25155;41.890;23.446;2023-10-13T02:21:31;6.72;;;4.90;;
39454;SDS011;25155;41.890;23.446;2023-10-13T02:24:00;6.10;;;3.63;;
39454;SDS011;25155;41.890;23.446;2023-10-13T02:26:29;5.32;;;3.33;;
39454;SDS011;25155;41.890;23.446;2023-10-13T02:28:59;7.40;;;3.65;;
39454;SDS011;25155;41.890;23.446;2023-10-13T02:31:29;5.72;;;3.47;;
39454;SDS011;25155;41.890;23.446;2023-10-13T02:33:56;4.25;;;3.05;;
39454;SDS011;25155;41.890;23.446;2023-10-13T02:36:22;4.47;;;3.10;;
39454;SDS011;25155;41.890;23.446;2023-10-13T02:39:02;4.97;;;3.15;;
39454;SDS011;25155;41.890;23.446;2023-10-13T02:41:33;4.63;;;3.15;;
39454;SDS011;25155;41.890;23.446;2023-10-13T02:44:04;5.55;;;3.50;;
39454;SDS011;25155;41.890;23.446;2023-10-13T02:46:31;5.05;;;3.15;;
39454;SDS011;25155;41.890;23.446;2023-10-13T02:49:01;5.50;;;3.10;;
39454;SDS011;25155;41.890;23.446;2023-10-13T02:51:35;5.63;;;3.53;;
39454;SDS011;25155;41.890;23.446;2023-10-13T02:54:02;6.13;;;4.30;;
39454;SDS011;25155;41.890;23.446;2023-10-13T02:56:35;5.22;;;3.60;;
39454;SDS011;25155;41.890;23.446;2023-10-13T02:59:03;5.85;;;3.50;;
39454;SDS011;25155;41.890;23.446;2023-10-13T03:01:31;7.38;;;5.10;;
39454;SDS011;25155;41.890;23.446;2023-10-13T03:04:00;7.60;;;4.78;;
39454;SDS011;25155;41.890;23.446;2023-10-13T03:06:28;7.05;;;4.50;;
39454;SDS011;25155;41.890;23.446;2023-10-13T03:08:58;5.95;;;3.80;;
39454;SDS011;25155;41.890;23.446;2023-10-13T03:11:38;4.80;;;3.20;;
39454;SDS011;25155;41.890;23.446;2023-10-13T03:14:09;4.75;;;3.10;;
39454;SDS011;25155;41.890;23.446;2023-10-13T03:16:50;4.72;;;2.85;;
39454;SDS011;25155;41.890;23.446;2023-10-13T03:19:18;5.88;;;3.63;;
39454;SDS011;25155;41.890;23.446;2023-10-13T03:21:44;5.53;;;3.30;;
39454;SDS011;25155;41.890;23.446;2023-10-13T03:24:20;5.20;;;3.10;;
39454;SDS011;25155;41.890;23.446;2023-10-13T03:26:48;5.75;;;3.22;;
39454;SDS011;25155;41.890;23.446;2023-10-13T03:29:19;5.25;;;3.25;;
39454;SDS011;25155;41.890;23.446;2023-10-13T03:31:49;4.65;;;2.80;;
39454;SDS011;25155;41.890;23.446;2023-10-13T03:34:32;5.30;;;3.15;;
39454;SDS011;25155;41.890;23.446;2023-10-13T03:37:06;4.72;;;3.00;;
39454;SDS011;25155;41.890;23.446;2023-10-13T03:39:43;6.03;;;3.05;;
39454;SDS011;25155;41.890;23.446;2023-10-13T03:42:11;5.30;;;3.13;;
39454;SDS011;25155;41.890;23.446;2023-10-13T03:44:46;9.85;;;4.68;;
39454;SDS011;25155;41.890;23.446;2023-10-13T03:47:13;10.20;;;5.60;;
39454;SDS011;25155;41.890;23.446;2023-10-13T03:49:52;9.70;;;5.10;;
39454;SDS011;25155;41.890;23.446;2023-10-13T03:52:40;8.48;;;4.50;;
39454;SDS011;25155;41.890;23.446;2023-10-13T03:55:08;7.82;;;4.28;;
39454;SDS011;25155;41.890;23.446;2023-10-13T03:57:43;8.88;;;4.30;;
39454;SDS011;25155;41.890;23.446;2023-10-13T04:00:14;10.15;;;4.28;;
39454;SDS011;25155;41.890;23.446;2023-10-13T04:02:52;5.97;;;4.00;;
39454;SDS011;25155;41.890;23.446;2023-10-13T04:05:32;5.82;;;3.40;;
39454;SDS011;25155;41.890;23.446;2023-10-13T04:08:10;7.18;;;3.53;;
39454;SDS011;25155;41.890;23.446;2023-10-13T04:10:55;6.50;;;4.15;;
39454;SDS011;25155;41.890;23.446;2023-10-13T04:13:40;6.47;;;3.97;;
39454;SDS011;25155;41.890;23.446;2023-10-13T04:16:27;9.20;;;5.10;;
39454;SDS011;25155;41.890;23.446;2023-10-13T04:19:17;6.88;;;4.88;;
39454;SDS011;25155;41.890;23.446;2023-10-13T04:21:50;6.75;;;4.05;;
39454;SDS011;25155;41.890;23.446;2023-10-13T04:24:42;6.55;;;3.92;;
39454;SDS011;25155;41.890;23.446;2023-10-13T04:27:47;6.40;;;3.78;;
39454;SDS011;25155;41.890;23.446;2023-10-13T04:30:40;5.50;;;3.60;;
39454;SDS011;25155;41.890;23.446;2023-10-13T04:33:24;6.38;;;3.42;;
39454;SDS011;25155;41.890;23.446;2023-10-13T04:36:18;5.65;;;3.50;;
39454;SDS011;25155;41.890;23.446;2023-10-13T04:39:02;6.75;;;3.50;;
39454;SDS011;25155;41.890;23.446;2023-10-13T04:41:35;4.75;;;3.38;;
39454;SDS011;25155;41.890;23.446;2023-10-13T04:44:04;6.40;;;3.75;;
39454;SDS011;25155;41.890;23.446;2023-10-13T04:46:51;7.30;;;4.07;;
39454;SDS011;25155;41.890;23.446;2023-10-13T04:49:38;6.68;;;4.07;;
39454;SDS011;25155;41.890;23.446;2023-10-13T04:52:17;10.52;;;6.00;;
39454;SDS011;25155;41.890;23.446;2023-10-13T04:55:01;8.52;;;5.63;;
39454;SDS011;25155;41.890;23.446;2023-10-13T04:57:42;9.90;;;5.25;;
39454;SDS011;25155;41.890;23.446;2023-10-13T05:00:19;8.45;;;4.72;;
39454;SDS011;25155;41.890;23.446;2023-10-13T05:03:12;4.75;;;3.20;;
39454;SDS011;25155;41.890;23.446;2023-10-13T05:06:00;5.50;;;3.60;;
39454;SDS011;25155;41.890;23.446;2023-10-13T05:08:56;4.97;;;3.35;;
39454;SDS011;25155;41.890;23.446;2023-10-13T05:11:40;8.98;;;5.10;;
39454;SDS011;25155;41.890;23.446;2023-10-13T05:14:27;9.05;;;5.93;;
39454;SDS011;25155;41.890;23.446;2023-10-13T05:17:11;9.80;;;6.68;;
39454;SDS011;25155;41.890;23.446;2023-10-13T05:19:57;10.68;;;6.72;;
39454;SDS011;25155;41.890;23.446;2023-10-13T05:22:43;11.68;;;7.25;;
39454;SDS011;25155;41.890;23.446;2023-10-13T05:25:27;17.10;;;9.52;;
39454;SDS011;25155;41.890;23.446;2023-10-13T05:28:11;21.35;;;12.30;;
39454;SDS011;25155;41.890;23.446;2023-10-13T05:30:58;20.25;;;12.35;;
39454;SDS011;25155;41.890;23.446;2023-10-13T05:33:43;23.95;;;15.15;;
39454;SDS011;25155;41.890;23.446;2023-10-13T05:36:27;25.33;;;13.65;;
39454;SDS011;25155;41.890;23.446;2023-10-13T05:39:13;17.50;;;11.52;;
39454;SDS011;25155;41.890;23.446;2023-10-13T05:41:57;16.00;;;9.65;;
39454;SDS011;25155;41.890;23.446;2023-10-13T05:44:42;14.40;;;8.20;;
39454;SDS011;25155;41.890;23.446;2023-10-13T05:47:22;12.95;;;8.10;;
39454;SDS011;25155;41.890;23.446;2023-10-13T05:50:12;13.82;;;8.93;;
39454;SDS011;25155;41.890;23.446;2023-10-13T05:52:54;13.43;;;8.57;;
39454;SDS011;25155;41.890;23.446;2023-10-13T05:55:40;14.35;;;8.70;;
39454;SDS011;25155;41.890;23.446;2023-10-13T05:58:30;14.57;;;9.57;;
39454;SDS011;25155;41.890;23.446;2023-10-13T06:01:14;11.05;;;7.57;;
39454;SDS011;25155;41.890;23.446;2023-10-13T06:03:58;9.93;;;7.05;;
39454;SDS011;25155;41.890;23.446;2023-10-13T06:06:43;11.15;;;7.07;;
39454;SDS011;25155;41.890;23.446;2023-10-13T06:09:27;14.55;;;9.23;;
39454;SDS011;25155;41.890;23.446;2023-10-13T06:12:13;10.85;;;7.20;;
39454;SDS011;25155;41.890;23.446;2023-10-13T06:14:57;9.77;;;6.70;;
39454;SDS011;25155;41.890;23.446;2023-10-13T06:17:42;8.13;;;5.72;;
39454;SDS011;25155;41.890;23.446;2023-10-13T06:20:26;9.50;;;6.65;;
39454;SDS011;25155;41.890;23.446;2023-10-13T06:23:11;13.10;;;7.45;;
39454;SDS011;25155;41.890;23.446;2023-10-13T06:25:55;9.90;;;6.93;;
39454;SDS011;25155;41.890;23.446;2023-10-13T06:28:41;9.85;;;6.97;;
39454;SDS011;25155;41.890;23.446;2023-10-13T06:31:09;8.82;;;5.95;;
39454;SDS011;25155;41.890;23.446;2023-10-13T06:33:46;8.65;;;5.47;;
39454;SDS011;25155;41.890;23.446;2023-10-13T06:36:14;8.82;;;5.95;;
39454;SDS011;25155;41.890;23.446;2023-10-13T06:38:43;10.07;;;6.85;;
39454;SDS011;25155;41.890;23.446;2023-10-13T06:41:10;8.50;;;5.40;;
39454;SDS011;25155;41.890;23.446;2023-10-13T06:43:46;7.47;;;5.05;;
39454;SDS011;25155;41.890;23.446;2023-10-13T06:46:25;7.35;;;5.35;;
39454;SDS011;25155;41.890;23.446;2023-10-13T06:48:53;8.85;;;5.55;;
39454;SDS011;25155;41.890;23.446;2023-10-13T06:51:24;7.18;;;5.30;;
39454;SDS011;25155;41.890;23.446;2023-10-13T06:53:56;14.27;;;8.43;;
39454;SDS011;25155;41.890;23.446;2023-10-13T06:56:23;14.90;;;10.25;;
39454;SDS011;25155;41.890;23.446;2023-10-13T06:58:56;11.27;;;8.38;;
39454;SDS011;25155;41.890;23.446;2023-10-13T07:01:27;16.95;;;12.90;;
39454;SDS011;25155;41.890;23.446;2023-10-13T07:03:55;25.98;;;16.15;;
39454;SDS011;25155;41.890;23.446;2023-10-13T07:06:26;17.13;;;11.50;;
39454;SDS011;25155;41.890;23.446;2023-10-13T07:08:53;18.88;;;12.55;;
39454;SDS011;25155;41.890;23.446;2023-10-13T07:11:24;14.98;;;10.15;;
39454;SDS011;25155;41.890;23.446;2023-10-13T07:14:02;19.90;;;12.95;;
39454;SDS011;25155;41.890;23.446;2023-10-13T07:16:36;14.13;;;9.82;;
39454;SDS011;25155;41.890;23.446;2023-10-13T07:19:12;12.98;;;8.20;;
39454;SDS011;25155;41.890;23.446;2023-10-13T07:21:43;13.25;;;10.50;;
39454;SDS011;25155;41.890;23.446;2023-10-13T07:24:11;14.60;;;11.32;;
39454;SDS011;25155;41.890;23.446;2023-10-13T07:26:39;13.52;;;9.30;;
39454;SDS011;25155;41.890;23.446;2023-10-13T07:29:12;15.38;;;11.35;;
39454;SDS011;25155;41.890;23.446;2023-10-13T07:31:40;16.65;;;11.50;;
39454;SDS011;25155;41.890;23.446;2023-10-13T07:34:10;16.73;;;12.45;;
39454;SDS011;25155;41.890;23.446;2023-10-13T07:36:51;18.02;;;13.77;;
39454;SDS011;25155;41.890;23.446;2023-10-13T07:39:20;17.55;;;12.43;;
39454;SDS011;25155;41.890;23.446;2023-10-13T07:41:49;25.98;;;17.52;;
39454;SDS011;25155;41.890;23.446;2023-10-13T07:44:30;21.25;;;14.85;;
39454;SDS011;25155;41.890;23.446;2023-10-13T07:46:58;22.95;;;16.08;;
39454;SDS011;25155;41.890;23.446;2023-10-13T07:49:29;18.38;;;13.73;;
39454;SDS011;25155;41.890;23.446;2023-10-13T07:51:58;20.20;;;12.95;;
39454;SDS011;25155;41.890;23.446;2023-10-13T07:54:43;15.35;;;10.90;;
39454;SDS011;25155;41.890;23.446;2023-10-13T07:57:13;11.95;;;9.10;;
39454;SDS011;25155;41.890;23.446;2023-10-13T07:59:44;12.20;;;9.00;;
39454;SDS011;25155;41.890;23.446;2023-10-13T08:02:15;12.90;;;8.75;;
39454;SDS011;25155;41.890;23.446;2023-10-13T08:05:02;12.98;;;7.50;;
39454;SDS011;25155;41.890;23.446;2023-10-13T08:07:39;10.35;;;7.55;;
39454;SDS011;25155;41.890;23.446;2023-10-13T08:10:08;8.10;;;5.95;;
39454;SDS011;25155;41.890;23.446;2023-10-13T08:12:36;7.72;;;5.45;;
39454;SDS011;25155;41.890;23.446;2023-10-13T08:15:09;6.00;;;4.83;;
39454;SDS011;25155;41.890;23.446;2023-10-13T08:17:46;7.22;;;4.70;;
39454;SDS011;25155;41.890;23.446;2023-10-13T08:20:17;6.65;;;5.07;;
39454;SDS011;25155;41.890;23.446;2023-10-13T08:22:47;7.35;;;5.32;;
39454;SDS011;25155;41.890;23.446;2023-10-13T08:25:14;8.85;;;5.93;;
39454;SDS011;25155;41.890;23.446;2023-10-13T08:27:46;8.05;;;5.25;;
39454;SDS011;25155;41.890;23.446;2023-10-13T08:30:32;7.57;;;5.30;;
39454;SDS011;25155;41.890;23.446;2023-10-13T08:33:18;9.05;;;6.30;;
39454;SDS011;25155;41.890;23.446;2023-10-13T08:35:50;8.10;;;5.45;;
39454;SDS011;25155;41.890;23.446;2023-10-13T08:38:44;7.43;;;4.80;;
39454;SDS011;25155;41.890;23.446;2023-10-13T08:41:17;10.45;;;6.32;;
39454;SDS011;25155;41.890;23.446;2023-10-13T08:44:01;6.82;;;4.57;;
39454;SDS011;25155;41.890;23.446;2023-10-13T08:46:36;6.20;;;4.40;;
39454;SDS011;25155;41.890;23.446;2023-10-13T08:49:27;8.73;;;5.65;;
39454;SDS011;25155;41.890;23.446;2023-10-13T08:51:54;8.52;;;4.90;;
39454;SDS011;25155;41.890;23.446;2023-10-13T08:54:52;8.50;;;5.75;;
39454;SDS011;25155;41.890;23.446;2023-10-13T08:57:40;8.35;;;5.13;;
39454;SDS011;25155;41.890;23.446;2023-10-13T09:00:15;8.98;;;5.80;;
39454;SDS011;25155;41.890;23.446;2023-10-13T09:03:15;6.53;;;4.50;;
39454;SDS011;25155;41.890;23.446;2023-10-13T09:06:04;10.20;;;6.00;;
39454;SDS011;25155;41.890;23.446;2023-10-13T09:08:31;8.60;;;4.95;;
39454;SDS011;25155;41.890;23.446;2023-10-13T09:11:10;10.82;;;5.88;;
39454;SDS011;25155;41.890;23.446;2023-10-13T09:13:37;8.40;;;5.20;;
39454;SDS011;25155;41.890;23.446;2023-10-13T09:16:11;10.48;;;6.10;;
39454;SDS011;25155;41.890;23.446;2023-10-13T09:19:09;7.82;;;5.70;;
39454;SDS011;25155;41.890;23.446;2023-10-13T09:21:41;10.52;;;7.20;;
39454;SDS011;25155;41.890;23.446;2023-10-13T09:24:14;14.10;;;8.90;;
39454;SDS011;25155;41.890;23.446;2023-10-13T09:26:52;11.73;;;7.55;;
39454;SDS011;25155;41.890;23.446;2023-10-13T09:29:22;13.68;;;6.75;;
39454;SDS011;25155;41.890;23.446;2023-10-13T09:32:00;9.57;;;6.15;;
39454;SDS011;25155;41.890;23.446;2023-10-13T09:34:29;7.43;;;5.55;;
39454;SDS011;25155;41.890;23.446;2023-10-13T09:36:59;6.80;;;5.10;;
39454;SDS011;25155;41.890;23.446;2023-10-13T09:39:28;10.90;;;5.93;;
39454;SDS011;25155;41.890;23.446;2023-10-13T09:44:36;8.35;;;5.85;;
39454;SDS011;25155;41.890;23.446;2023-10-13T09:47:08;7.68;;;5.60;;
39454;SDS011;25155;41.890;23.446;2023-10-13T09:49:44;9.52;;;7.13;;
39454;SDS011;25155;41.890;23.446;2023-10-13T09:52:15;11.15;;;6.90;;
39454;SDS011;25155;41.890;23.446;2023-10-13T09:54:50;9.20;;;5.90;;
39454;SDS011;25155;41.890;23.446;2023-10-13T09:57:28;9.60;;;6.60;;
39454;SDS011;25155;41.890;23.446;2023-10-13T10:00:02;8.85;;;6.40;;
39454;SDS011;25155;41.890;23.446;2023-10-13T10:02:53;11.95;;;6.85;;
39454;SDS011;25155;41.890;23.446;2023-10-13T10:07:55;6.95;;;5.30;;
39454;SDS011;25155;41.890;23.446;2023-10-13T10:10:22;7.43;;;4.90;;
39454;SDS011;25155;41.890;23.446;2023-10-13T10:13:00;6.20;;;4.38;;
39454;SDS011;25155;41.890;23.446;2023-10-13T10:15:43;6.40;;;4.50;;
39454;SDS011;25155;41.890;23.446;2023-10-13T10:18:17;5.32;;;3.15;;
39454;SDS011;25155;41.890;23.446;2023-10-13T10:20:48;6.55;;;4.30;;
39454;SDS011;25155;41.890;23.446;2023-10-13T10:23:23;8.77;;;5.38;;
39454;SDS011;25155;41.890;23.446;2023-10-13T10:25:52;10.65;;;5.45;;
39454;SDS011;25155;41.890;23.446;2023-10-13T10:28:35;5.00;;;3.63;;
39454;SDS011;25155;41.890;23.446;2023-10-13T10:31:04;6.90;;;4.10;;
39454;SDS011;25155;41.890;23.446;2023-10-13T10:33:34;6.75;;;4.30;;
39454;SDS011;25155;41.890;23.446;2023-10-13T10:36:04;5.78;;;3.90;;
39454;SDS011;25155;41.890;23.446;2023-10-13T10:38:32;7.20;;;4.15;;
39454;SDS011;25155;41.890;23.446;2023-10-13T10:41:00;7.95;;;4.40;;
39454;SDS011;25155;41.890;23.446;2023-10-13T10:43:30;9.38;;;4.10;;
39454;SDS011;25155;41.890;23.446;2023-10-13T10:46:09;4.82;;;3.00;;
39454;SDS011;25155;41.890;23.446;2023-10-13T10:48:37;6.70;;;3.90;;
39454;SDS011;25155;41.890;23.446;2023-10-13T10:51:10;5.82;;;3.78;;
39454;SDS011;25155;41.890;23.446;2023-10-13T10:53:46;6.22;;;4.22;;
39454;SDS011;25155;41.890;23.446;2023-10-13T10:56:15;8.02;;;3.60;;
39454;SDS011;25155;41.890;23.446;2023-10-13T10:58:49;4.75;;;3.03;;
39454;SDS011;25155;41.890;23.446;2023-10-13T11:01:20;4.95;;;2.83;;
39454;SDS011;25155;41.890;23.446;2023-10-13T11:03:55;4.50;;;2.67;;
39454;SDS011;25155;41.890;23.446;2023-10-13T11:06:35;4.85;;;3.03;;
39454;SDS011;25155;41.890;23.446;2023-10-13T11:09:07;4.93;;;2.72;;
39454;SDS011;25155;41.890;23.446;2023-10-13T11:11:44;5.40;;;2.80;;
39454;SDS011;25155;41.890;23.446;2023-10-13T11:14:20;4.22;;;2.70;;
39454;SDS011;25155;41.890;23.446;2023-10-13T11:16:49;4.55;;;2.50;;
39454;SDS011;25155;41.890;23.446;2023-10-13T11:19:19;4.13;;;2.40;;
39454;SDS011;25155;41.890;23.446;2023-10-13T11:21:54;5.72;;;3.00;;
39454;SDS011;25155;41.890;23.446;2023-10-13T11:24:22;3.75;;;2.38;;
39454;SDS011;25155;41.890;23.446;2023-10-13T11:26:49;14.15;;;3.35;;
39454;SDS011;25155;41.890;23.446;2023-10-13T11:29:17;4.88;;;2.90;;
39454;SDS011;25155;41.890;23.446;2023-10-13T11:31:46;6.32;;;3.20;;
39454;SDS011;25155;41.890;23.446;2023-10-13T11:34:23;6.55;;;3.42;;
39454;SDS011;25155;41.890;23.446;2023-10-13T11:36:50;7.15;;;3.25;;
39454;SDS011;25155;41.890;23.446;2023-10-13T11:39:18;6.53;;;3.30;;
39454;SDS011;25155;41.890;23.446;2023-10-13T11:41:50;6.30;;;3.70;;
39454;SDS011;25155;41.890;23.446;2023-10-13T11:44:20;7.33;;;3.73;;
39454;SDS011;25155;41.890;23.446;2023-10-13T11:46:51;4.55;;;3.05;;
39454;SDS011;25155;41.890;23.446;2023-10-13T11:49:22;5.03;;;3.30;;
39454;SDS011;25155;41.890;23.446;2023-10-13T11:51:59;4.68;;;3.28;;
39454;SDS011;25155;41.890;23.446;2023-10-13T11:54:43;6.35;;;3.38;;
39454;SDS011;25155;41.890;23.446;2023-10-13T11:59:42;4.78;;;3.08;;
39454;SDS011;25155;41.890;23.446;2023-10-13T12:02:21;5.43;;;3.00;;
39454;SDS011;25155;41.890;23.446;2023-10-13T12:05:06;5.50;;;3.30;;
39454;SDS011;25155;41.890;23.446;2023-10-13T12:07:42;5.82;;;3.10;;
39454;SDS011;25155;41.890;23.446;2023-10-13T12:10:15;4.38;;;2.90;;
39454;SDS011;25155;41.890;23.446;2023-10-13T12:12:59;4.72;;;3.00;;
39454;SDS011;25155;41.890;23.446;2023-10-13T12:15:32;5.50;;;3.55;;
39454;SDS011;25155;41.890;23.446;2023-10-13T12:18:16;5.65;;;2.60;;
39454;SDS011;25155;41.890;23.446;2023-10-13T12:20:44;5.00;;;3.00;;
39454;SDS011;25155;41.890;23.446;2023-10-13T12:23:12;4.50;;;2.70;;
39454;SDS011;25155;41.890;23.446;2023-10-13T12:25:47;5.65;;;3.10;;
39454;SDS011;25155;41.890;23.446;2023-10-13T12:28:31;8.13;;;3.70;;
39454;SDS011;25155;41.890;23.446;2023-10-13T12:31:05;7.00;;;2.83;;
39454;SDS011;25155;41.890;23.446;2023-10-13T12:33:37;6.18;;;3.00;;
39454;SDS011;25155;41.890;23.446;2023-10-13T12:36:06;5.10;;;2.80;;
39454;SDS011;25155;41.890;23.446;2023-10-13T12:38:35;4.65;;;2.85;;
39454;SDS011;25155;41.890;23.446;2023-10-13T12:41:38;7.32;;;3.65;;
39454;SDS011;25155;41.890;23.446;2023-10-13T12:44:22;4.50;;;2.97;;
39454;SDS011;25155;41.890;23.446;2023-10-13T12:47:06;3.70;;;2.72;;
39454;SDS011;25155;41.890;23.446;2023-10-13T12:49:51;5.72;;;3.85;;
39454;SDS011;25155;41.890;23.446;2023-10-13T12:52:51;6.93;;;4.05;;
39454;SDS011;25155;41.890;23.446;2023-10-13T12:55:18;6.18;;;2.90;;
39454;SDS011;25155;41.890;23.446;2023-10-13T13:15:46;4.18;;;2.80;;
39454;SDS011;25155;41.890;23.446;2023-10-13T13:18:13;5.35;;;2.92;;
39454;SDS011;25155;41.890;23.446;2023-10-13T13:20:40;4.57;;;2.90;;
39454;SDS011;25155;41.890;23.446;2023-10-13T13:23:18;7.20;;;3.30;;
39454;SDS011;25155;41.890;23.446;2023-10-13T13:25:45;4.43;;;2.80;;
39454;SDS011;25155;41.890;23.446;2023-10-13T13:28:12;5.78;;;3.42;;
39454;SDS011;25155;41.890;23.446;2023-10-13T13:30:40;8.90;;;3.30;;
39454;SDS011;25155;41.890;23.446;2023-10-13T13:33:09;6.25;;;3.58;;
39454;SDS011;25155;41.890;23.446;2023-10-13T13:35:41;8.10;;;3.60;;
39454;SDS011;25155;41.890;23.446;2023-10-13T13:38:08;4.97;;;3.10;;
39454;SDS011;25155;41.890;23.446;2023-10-13T13:40:47;5.00;;;2.97;;
39454;SDS011;25155;41.890;23.446;2023-10-13T13:43:19;4.32;;;2.70;;
39454;SDS011;25155;41.890;23.446;2023-10-13T13:46:03;4.93;;;3.08;;
39454;SDS011;25155;41.890;23.446;2023-10-13T13:48:36;5.05;;;3.15;;
39454;SDS011;25155;41.890;23.446;2023-10-13T13:51:04;5.15;;;2.80;;
39454;SDS011;25155;41.890;23.446;2023-10-13T13:53:38;5.93;;;3.20;;
39454;SDS011;25155;41.890;23.446;2023-10-13T13:56:08;5.90;;;3.10;;
39454;SDS011;25155;41.890;23.446;2023-10-13T13:58:35;6.45;;;3.35;;
39454;SDS011;25155;41.890;23.446;2023-10-13T14:01:03;5.22;;;3.10;;
39454;SDS011;25155;41.890;23.446;2023-10-13T14:03:40;4.53;;;3.10;;
39454;SDS011;25155;41.890;23.446;2023-10-13T14:06:11;4.75;;;3.00;;
39454;SDS011;25155;41.890;23.446;2023-10-13T14:08:43;6.85;;;3.70;;
39454;SDS011;25155;41.890;23.446;2023-10-13T14:11:14;5.70;;;3.40;;
39454;SDS011;25155;41.890;23.446;2023-10-13T14:13:59;5.50;;;3.22;;
39454;SDS011;25155;41.890;23.446;2023-10-13T14:16:29;5.25;;;3.00;;
39454;SDS011;25155;41.890;23.446;2023-10-13T14:19:00;5.60;;;3.08;;
39454;SDS011;25155;41.890;23.446;2023-10-13T14:21:32;7.75;;;3.80;;
39454;SDS011;25155;41.890;23.446;2023-10-13T14:24:00;6.68;;;3.72;;
39454;SDS011;25155;41.890;23.446;2023-10-13T14:26:28;6.90;;;3.42;;
39454;SDS011;25155;41.890;23.446;2023-10-13T14:28:56;6.32;;;3.35;;
39454;SDS011;25155;41.890;23.446;2023-10-13T14:31:27;5.40;;;2.95;;
39454;SDS011;25155;41.890;23.446;2023-10-13T14:33:54;5.60;;;3.35;;
39454;SDS011;25155;41.890;23.446;2023-10-13T14:36:23;6.40;;;3.33;;
39454;SDS011;25155;41.890;23.446;2023-10-13T14:38:54;4.82;;;2.85;;
39454;SDS011;25155;41.890;23.446;2023-10-13T14:41:22;6.65;;;3.60;;
39454;SDS011;25155;41.890;23.446;2023-10-13T14:43:49;7.07;;;4.15;;
39454;SDS011;25155;41.890;23.446;2023-10-13T14:46:18;4.57;;;3.03;;
39454;SDS011;25155;41.890;23.446;2023-10-13T14:48:48;5.72;;;3.60;;
39454;SDS011;25155;41.890;23.446;2023-10-13T14:51:18;5.43;;;3.30;;
39454;SDS011;25155;41.890;23.446;2023-10-13T14:53:47;6.47;;;3.83;;
39454;SDS011;25155;41.890;23.446;2023-10-13T14:56:15;6.93;;;3.45;;
39454;SDS011;25155;41.890;23.446;2023-10-13T14:58:44;6.40;;;3.65;;
39454;SDS011;25155;41.890;23.446;2023-10-13T15:01:12;6.03;;;3.40;;
39454;SDS011;25155;41.890;23.446;2023-10-13T15:03:41;7.82;;;4.05;;
39454;SDS011;25155;41.890;23.446;2023-10-13T15:06:14;8.30;;;3.55;;
39454;SDS011;25155;41.890;23.446;2023-10-13T15:08:43;5.35;;;3.38;;
39454;SDS011;25155;41.890;23.446;2023-10-13T15:11:12;4.63;;;3.15;;
39454;SDS011;25155;41.890;23.446;2023-10-13T15:13:40;7.15;;;3.58;;
39454;SDS011;25155;41.890;23.446;2023-10-13T15:16:14;5.13;;;2.95;;
39454;SDS011;25155;41.890;23.446;2023-10-13T15:18:43;5.07;;;2.80;;
39454;SDS011;25155;41.890;23.446;2023-10-13T15:21:11;4.82;;;3.08;;
39454;SDS011;25155;41.890;23.446;2023-10-13T15:23:44;5.22;;;3.00;;
39454;SDS011;25155;41.890;23.446;2023-10-13T15:26:13;3.45;;;2.28;;
39454;SDS011;25155;41.890;23.446;2023-10-13T15:28:40;4.30;;;2.42;;
39454;SDS011;25155;41.890;23.446;2023-10-13T15:31:14;5.00;;;2.75;;
39454;SDS011;25155;41.890;23.446;2023-10-13T15:34:03;4.43;;;2.70;;
39454;SDS011;25155;41.890;23.446;2023-10-13T15:36:32;7.32;;;3.45;;
39454;SDS011;25155;41.890;23.446;2023-10-13T15:38:59;4.20;;;2.28;;